Terminal Aerodrome Forecast
Issued by NWS Billings, MT

Home | Current Version | Previous Version | Graphics & Text | Print | Product List | Glossary On
Versions: 1 2 3 4 5 6 7 8 9 10 11 12 13 14 15 16
000
FTUS45 KBYZ 272335 CCA
TAFMLS
TAF COR
KMLS 272335Z 2800/2824 VRB05KT P6SM VCSH BKN020 OVC040
      TEMPO 2800/2803 04014KT 6SM -SHSN BKN015
     FM281000 05007KT P6SM VCFG SCT005 BKN180
     FM281600 20008KT P6SM SCT020 BKN050
     FM282200 26011G19KT P6SM VCSH SCT030 BKN060=

USA.gov is the U.S. government's official web portal to all federal, state and local government web resources and services.